Time;durP1;ratioP1;P1;durP2;ratioP2;P2;SDS_P1;SDS_P2;PMS_P1;PMS_P2;Temp;Humidity;BMP_temperature;BMP_pressure;BME280_temperature;BME280_humidity;BME280_pressure;Samples;Min_cycle;Max_cycle;Signal;HPM_P1;HPM_P2
2021/11/28 00:00:13;;;;;;;9.73;8.73;;;;;;;-3.46;100.00;96067.38;5058727;28;20796;-79
2021/11/28 00:02:41;;;;;;;10.60;9.50;;;;;;;-3.36;100.00;96073.47;5053627;28;20690;-76
2021/11/28 00:05:09;;;;;;;10.47;9.37;;;;;;;-3.26;100.00;96069.16;5041422;28;21029;-78
2021/11/28 00:07:50;;;;;;;9.83;8.83;;;;;;;-3.20;100.00;96079.06;5046327;28;20474;-77
2021/11/28 00:10:40;;;;;;;10.70;9.03;;;;;;;-3.06;100.00;96070.13;5054738;28;20441;-79
2021/11/28 00:13:10;;;;;;;9.17;7.97;;;;;;;-2.97;100.00;96076.31;5025186;28;20844;-78
2021/11/28 00:15:39;;;;;;;10.63;8.50;;;;;;;-2.98;100.00;96069.50;5052473;28;20720;-79
2021/11/28 00:18:08;;;;;;;10.07;8.10;;;;;;;-2.95;100.00;96063.25;5054789;28;20484;-77
2021/11/28 00:20:36;;;;;;;8.90;8.00;;;;;;;-2.93;100.00;96069.94;5043020;28;20721;-78
2021/11/28 00:23:04;;;;;;;11.27;10.10;;;;;;;-2.60;100.00;96066.44;5053434;28;20445;-79
2021/11/28 00:25:34;;;;;;;9.60;7.90;;;;;;;-2.70;100.00;96066.38;5051282;28;20510;-79
2021/11/28 00:28:02;;;;;;;12.60;9.27;;;;;;;-2.66;100.00;96071.19;5020821;28;20469;-78
2021/11/28 00:30:30;;;;;;;9.93;7.60;;;;;;;-2.63;100.00;96075.31;5050696;28;20447;-77
2021/11/28 00:33:00;;;;;;;8.53;7.63;;;;;;;-2.53;100.00;96083.94;5053839;28;20203;-78
2021/11/28 00:35:28;;;;;;;9.83;7.60;;;;;;;-2.50;100.00;96083.69;5041327;28;20600;-77
2021/11/28 00:37:56;;;;;;;11.03;7.90;;;;;;;-2.44;100.00;96066.78;5048051;28;20863;-79
2021/11/28 00:40:24;;;;;;;11.17;8.27;;;;;;;-2.44;100.00;96055.56;5053934;28;20494;-78
2021/11/28 00:42:55;;;;;;;10.03;8.33;;;;;;;-2.41;100.00;96050.97;5017347;28;20465;-79
2021/11/28 00:45:23;;;;;;;9.07;8.17;;;;;;;-2.45;100.00;96046.16;5050106;28;20386;-78
2021/11/28 00:47:51;;;;;;;8.93;8.10;;;;;;;-2.50;100.00;96036.16;5052486;28;20646;-78
2021/11/28 00:50:28;;;;;;;8.13;7.40;;;;;;;-2.54;100.00;96027.84;5044586;28;20453;-77
2021/11/28 00:52:56;;;;;;;7.73;6.93;;;;;;;-2.59;100.00;96029.16;5050024;28;20817;-77
2021/11/28 00:55:24;;;;;;;7.23;6.37;;;;;;;-2.59;100.00;96029.16;5057738;28;20433;-77
2021/11/28 00:57:52;;;;;;;8.00;6.90;;;;;;;-2.63;100.00;96026.84;5022538;28;20473;-77
2021/11/28 01:00:21;;;;;;;8.40;7.60;;;;;;;-2.66;100.00;96024.50;5051290;28;20670;-76
2021/11/28 01:02:49;;;;;;;7.23;6.50;;;;;;;-2.67;100.00;96024.63;5054484;28;20202;-76
2021/11/28 01:05:17;;;;;;;8.07;7.27;;;;;;;-2.76;100.00;96021.88;5055140;28;21013;-76
2021/11/28 01:07:46;;;;;;;6.93;6.23;;;;;;;-2.80;100.00;96024.88;5040895;28;20873;-77
2021/11/28 01:10:14;;;;;;;8.17;7.37;;;;;;;-2.81;100.00;96031.81;5053410;28;20441;-77
2021/11/28 01:12:42;;;;;;;7.70;7.00;;;;;;;-2.87;100.00;96026.31;5049828;28;20450;-77
2021/11/28 01:15:11;;;;;;;7.70;6.97;;;;;;;-2.88;100.00;96028.09;5015366;28;20855;-76
2021/11/28 01:17:41;;;;;;;8.40;6.90;;;;;;;-2.89;100.00;96020.44;5052573;28;20231;-78
2021/11/28 01:20:11;;;;;;;8.83;6.43;;;;;;;-2.94;100.00;96013.84;5050906;28;20208;-76
2021/11/28 01:22:40;;;;;;;7.17;6.50;;;;;;;-2.94;100.00;96010.47;5046854;28;20970;-78
2021/11/28 01:25:10;;;;;;;7.73;7.03;;;;;;;-2.95;100.00;96003.63;5055865;28;20249;-76
2021/11/28 01:27:39;;;;;;;7.60;6.90;;;;;;;-2.97;100.00;96011.53;5049184;28;20511;-77
2021/11/28 01:30:08;;;;;;;8.27;7.47;;;;;;;-2.94;100.00;96020.84;5019937;28;20468;-77
2021/11/28 01:32:37;;;;;;;8.90;7.77;;;;;;;-2.95;100.00;96021.78;5047833;28;20768;-77
2021/11/28 01:35:10;;;;;;;7.97;6.87;;;;;;;-2.98;100.00;96030.63;5051583;28;20512;-77
2021/11/28 01:37:39;;;;;;;8.37;7.57;;;;;;;-3.00;100.00;96037.72;5052993;28;20672;-78
2021/11/28 01:40:09;;;;;;;7.87;7.00;;;;;;;-3.03;100.00;96032.78;5037465;28;20969;-77
2021/11/28 01:42:40;;;;;;;7.53;6.87;;;;;;;-3.07;100.00;96034.78;5050950;28;20428;-77
2021/11/28 01:45:11;;;;;;;7.67;6.97;;;;;;;-3.10;100.00;96044.59;5010285;28;25527;-77
2021/11/28 01:47:39;;;;;;;8.27;7.47;;;;;;;-3.12;100.00;96047.31;5047582;28;20231;-77
2021/11/28 01:50:09;;;;;;;7.83;7.10;;;;;;;-3.06;100.00;96038.22;5051536;28;20407;-77
2021/11/28 01:52:37;;;;;;;7.93;7.23;;;;;;;-3.07;100.00;96028.81;5051999;28;20638;-77
2021/11/28 01:55:08;;;;;;;8.67;7.83;;;;;;;-3.05;100.00;96029.50;5038901;28;21263;-78
2021/11/28 01:57:37;;;;;;;8.37;7.23;;;;;;;-3.02;100.00;96025.84;5049265;28;20477;-78
2021/11/28 02:00:07;;;;;;;9.37;7.87;;;;;;;-2.94;100.00;96037.19;5021788;28;20508;-77
2021/11/28 02:02:36;;;;;;;8.37;7.57;;;;;;;-2.96;100.00;96028.72;5049869;28;20210;-79
2021/11/28 02:05:04;;;;;;;9.43;7.03;;;;;;;-2.97;100.00;96031.47;5048695;28;20519;-77
2021/11/28 02:07:34;;;;;;;10.93;7.80;;;;;;;-2.99;100.00;96043.72;5046237;28;20997;-78
2021/11/28 02:10:03;;;;;;;8.73;7.87;;;;;;;-2.98;100.00;96047.97;5039160;28;20442;-76
2021/11/28 02:12:31;;;;;;;7.57;6.87;;;;;;;-2.87;100.00;96036.66;5049627;28;20453;-77
2021/11/28 02:15:00;;;;;;;7.80;7.10;;;;;;;-2.90;100.00;96040.34;5051410;28;20460;-76
2021/11/28 02:17:28;;;;;;;7.83;7.10;;;;;;;-2.83;100.00;96038.09;5023360;28;20464;-79
2021/11/28 02:19:56;;;;;;;8.13;7.33;;;;;;;-2.92;100.00;96026.72;5045516;28;20441;-75
2021/11/28 02:22:26;;;;;;;8.33;7.73;;;;;;;-2.92;100.00;96026.72;5051628;28;20457;-77
2021/11/28 02:24:54;;;;;;;8.50;7.70;;;;;;;-2.89;100.00;96031.63;5050405;28;20457;-78
2021/11/28 02:27:22;;;;;;;6.93;6.33;;;;;;;-2.84;100.00;96032.06;5044732;28;20485;-78
2021/11/28 02:29:50;;;;;;;8.27;7.37;;;;;;;-2.79;100.00;96026.50;5054304;28;20834;-77
2021/11/28 02:32:19;;;;;;;7.87;7.07;;;;;;;-2.83;100.00;96022.53;5028738;28;20441;-78
2021/11/28 02:34:47;;;;;;;7.70;6.97;;;;;;;-2.86;100.00;96013.22;5047684;28;20709;-79
2021/11/28 02:37:15;;;;;;;7.07;6.37;;;;;;;-2.89;100.00;96002.28;5047783;28;20855;-78
2021/11/28 02:39:44;;;;;;;8.33;7.50;;;;;;;-2.93;100.00;96012.91;5055700;28;20452;-77
2021/11/28 02:42:12;;;;;;;8.83;7.47;;;;;;;-2.87;100.00;96010.75;5038429;28;20864;-77
2021/11/28 02:44:40;;;;;;;7.67;6.87;;;;;;;-2.86;100.00;96013.22;5053103;28;20473;-78
2021/11/28 02:47:08;;;;;;;8.80;7.67;;;;;;;-2.89;100.00;96010.91;5049108;28;20507;-76
2021/11/28 02:49:36;;;;;;;8.10;7.30;;;;;;;-2.85;100.00;96008.84;5021475;28;20808;-75
2021/11/28 02:52:05;;;;;;;11.63;7.10;;;;;;;-2.87;100.00;96024.53;5045334;28;20917;-77
2021/11/28 02:54:33;;;;;;;7.77;6.90;;;;;;;-2.89;100.00;96020.44;5050099;28;20217;-78
2021/11/28 02:57:03;;;;;;;8.37;7.53;;;;;;;-2.87;100.00;96008.16;5036073;28;20486;-78
2021/11/28 02:59:31;;;;;;;8.03;7.23;;;;;;;-2.95;100.00;96012.22;5052513;28;20206;-77
2021/11/28 03:01:59;;;;;;;7.67;6.87;;;;;;;-2.96;100.00;96013.16;5049714;28;20821;-77
2021/11/28 03:04:27;;;;;;;7.83;7.03;;;;;;;-2.97;100.00;96008.94;5028718;28;20471;-77
2021/11/28 03:06:55;;;;;;;9.93;7.13;;;;;;;-2.89;100.00;96013.47;5041047;28;21188;-77
2021/11/28 03:09:24;;;;;;;8.23;7.33;;;;;;;-2.94;100.00;96019.03;5057822;28;20446;-79
2021/11/28 03:11:52;;;;;;;7.67;6.90;;;;;;;-2.94;100.00;96024.22;5043642;28;20868;-75
2021/11/28 03:14:21;;;;;;;10.53;7.17;;;;;;;-2.99;100.00;96026.38;5043659;28;21568;-77
2021/11/28 03:16:49;;;;;;;11.27;7.17;;;;;;;-2.98;100.00;96032.41;5043881;28;20226;-77
2021/11/28 03:19:17;;;;;;;8.00;7.20;;;;;;;-3.01;100.00;96023.09;5027570;28;20489;-77
2021/11/28 03:21:45;;;;;;;8.20;7.50;;;;;;;-2.96;100.00;96020.13;5049996;28;20448;-77
2021/11/28 03:24:13;;;;;;;8.20;6.10;;;;;;;-2.98;100.00;96015.06;5057784;28;20669;-77
2021/11/28 03:26:43;;;;;;;8.40;7.47;;;;;;;-2.99;100.00;96012.63;5055722;28;20492;-78
2021/11/28 03:29:12;;;;;;;9.27;6.50;;;;;;;-2.98;100.00;96009.88;5046357;28;20209;-76
2021/11/28 03:31:44;;;;;;;8.57;6.93;;;;;;;-2.99;100.00;95994.47;5052114;28;20213;-79
2021/11/28 03:34:14;;;;;;;7.77;6.17;;;;;;;-3.00;100.00;96004.00;5051476;28;20874;-77
2021/11/28 03:36:48;;;;;;;6.53;6.00;;;;;;;-3.00;100.00;96006.59;5020645;28;20486;-77
2021/11/28 03:39:17;;;;;;;7.10;6.43;;;;;;;-3.00;100.00;96003.22;5060922;28;20453;-77
2021/11/28 03:41:49;;;;;;;6.73;6.20;;;;;;;-3.01;100.00;95999.78;5050600;28;20452;-77
2021/11/28 03:44:18;;;;;;;5.70;5.30;;;;;;;-3.02;100.00;96000.72;5046865;28;20448;-76
2021/11/28 03:46:47;;;;;;;6.47;5.87;;;;;;;-3.05;100.00;96006.97;5052968;28;20607;-78
2021/11/28 03:49:15;;;;;;;6.37;5.77;;;;;;;-3.06;100.00;96005.34;5077305;28;20409;-80
2021/11/28 03:51:43;;;;;;;7.10;6.43;;;;;;;-3.03;100.00;96000.84;5025933;28;20726;-77
2021/11/28 03:54:11;;;;;;;7.50;6.90;;;;;;;-3.04;100.00;96000.03;5055519;28;20214;-78
2021/11/28 03:56:41;;;;;;;6.63;5.77;;;;;;;-3.00;100.00;96005.78;5042444;28;21029;-79
2021/11/28 03:59:09;;;;;;;6.53;5.77;;;;;;;-3.00;100.00;96004.00;5046873;28;21119;-77
2021/11/28 04:01:37;;;;;;;6.63;6.03;;;;;;;-3.01;100.00;96002.38;5048657;28;20449;-77
2021/11/28 04:04:07;;;;;;;6.30;5.80;;;;;;;-3.00;100.00;96003.22;5054819;28;20523;-76
2021/11/28 04:06:35;;;;;;;5.33;4.93;;;;;;;-2.99;100.00;96010.03;5016150;28;20493;-78
2021/11/28 04:09:03;;;;;;;6.90;6.30;;;;;;;-3.01;100.00;96004.97;5058396;28;20210;-79
2021/11/28 04:11:31;;;;;;;6.47;5.90;;;;;;;-2.98;100.00;95999.53;5046646;28;21027;-77
2021/11/28 04:14:00;;;;;;;6.00;5.50;;;;;;;-2.96;100.00;95995.03;5055402;28;20445;-76
2021/11/28 04:16:28;;;;;;;8.33;6.20;;;;;;;-2.98;100.00;95996.13;5039466;28;20214;-77
2021/11/28 04:18:56;;;;;;;7.03;6.43;;;;;;;-2.97;100.00;96006.34;5050967;28;21133;-78
2021/11/28 04:21:26;;;;;;;6.80;6.20;;;;;;;-2.96;100.00;96000.22;5029337;28;20215;-81
2021/11/28 04:23:54;;;;;;;6.27;5.73;;;;;;;-2.98;100.00;95996.94;5053946;28;20456;-79
2021/11/28 04:26:23;;;;;;;6.97;6.27;;;;;;;-2.99;100.00;95994.47;5047230;28;20203;-78
2021/11/28 04:28:51;;;;;;;7.23;6.60;;;;;;;-2.99;100.00;96005.66;5054998;28;20222;-78
2021/11/28 04:31:19;;;;;;;7.23;6.63;;;;;;;-2.99;100.00;96008.25;5027200;28;22162;-75
2021/11/28 04:33:47;;;;;;;6.93;6.23;;;;;;;-3.00;100.00;96004.00;5056060;28;20474;-77
2021/11/28 04:36:15;;;;;;;6.67;5.87;;;;;;;-2.96;100.00;96012.38;5054511;28;20849;-79
2021/11/28 04:38:44;;;;;;;7.07;6.37;;;;;;;-2.97;100.00;96013.31;5020828;28;20317;-75
2021/11/28 04:41:13;;;;;;;8.17;7.33;;;;;;;-2.92;100.00;96013.75;5051625;28;21004;-77
2021/11/28 04:43:41;;;;;;;7.77;6.97;;;;;;;-2.97;100.00;96015.91;5044371;28;20455;-77
2021/11/28 04:46:09;;;;;;;6.60;6.00;;;;;;;-2.90;100.00;96019.63;5041226;28;20214;-77
2021/11/28 04:48:38;;;;;;;7.13;5.80;;;;;;;-2.82;100.00;96014.59;5053445;28;20579;-79
2021/11/28 04:51:06;;;;;;;6.87;6.23;;;;;;;-2.80;100.00;96012.69;5050941;28;20446;-76
2021/11/28 04:53:34;;;;;;;6.90;6.30;;;;;;;-2.77;100.00;96016.81;5025567;28;20682;-78
2021/11/28 04:56:03;;;;;;;8.23;6.47;;;;;;;-2.76;100.00;96014.09;5051573;28;20220;-78
2021/11/28 04:58:32;;;;;;;6.90;6.20;;;;;;;-2.71;100.00;96016.28;5041529;28;20495;-77
2021/11/28 05:01:00;;;;;;;6.60;6.00;;;;;;;-2.69;100.00;96008.38;5044119;28;21828;-77
2021/11/28 05:03:28;;;;;;;6.53;6.00;;;;;;;-2.67;100.00;95999.53;5041750;28;20313;-78
2021/11/28 05:05:56;;;;;;;6.60;5.93;;;;;;;-2.61;100.00;95987.81;5042292;28;20214;-77
2021/11/28 05:08:24;;;;;;;7.60;6.90;;;;;;;-2.62;100.00;95986.19;5026249;28;21165;-78
2021/11/28 05:10:52;;;;;;;7.13;6.40;;;;;;;-2.60;100.00;95988.63;5052218;28;20198;-78
2021/11/28 05:13:22;;;;;;;9.27;6.33;;;;;;;-2.53;100.00;95992.31;5039218;28;20207;-78
2021/11/28 05:15:50;;;;;;;7.27;6.57;;;;;;;-2.51;100.00;95993.00;5041116;28;20212;-77
2021/11/28 05:18:18;;;;;;;7.10;6.50;;;;;;;-2.42;100.00;95988.81;5040078;28;20516;-78
2021/11/28 05:20:48;;;;;;;8.23;6.60;;;;;;;-2.37;100.00;95994.44;5047403;28;20461;-78
2021/11/28 05:23:17;;;;;;;7.17;6.33;;;;;;;-2.40;100.00;95990.34;5028355;28;20458;-79
2021/11/28 05:25:45;;;;;;;6.07;5.50;;;;;;;-2.37;100.00;95992.66;5036420;28;20226;-73
2021/11/28 05:28:13;;;;;;;7.73;6.17;;;;;;;-2.41;100.00;95999.06;5034036;28;20693;-75
2021/11/28 05:30:42;;;;;;;7.93;6.67;;;;;;;-2.43;100.00;95995.78;5032653;28;20210;-74
2021/11/28 05:33:10;;;;;;;5.70;5.17;;;;;;;-2.35;100.00;95993.34;5038800;28;20817;-73
2021/11/28 05:35:39;;;;;;;7.27;5.40;;;;;;;-2.49;100.00;95981.56;5062095;28;20467;-82
2021/11/28 05:38:07;;;;;;;6.50;6.00;;;;;;;-2.43;100.00;95993.19;5047769;28;20484;-76
2021/11/28 05:40:35;;;;;;;6.37;5.83;;;;;;;-2.39;100.00;96002.34;5025453;28;20238;-77
2021/11/28 05:43:03;;;;;;;6.60;5.97;;;;;;;-2.41;100.00;96006.84;5042706;28;20461;-78
2021/11/28 05:45:31;;;;;;;5.70;5.30;;;;;;;-2.42;100.00;96005.22;5052405;28;20199;-76
2021/11/28 05:48:01;;;;;;;5.97;5.03;;;;;;;-2.38;100.00;96004.00;5046220;28;20231;-77
2021/11/28 05:50:31;;;;;;;6.30;5.70;;;;;;;-2.39;100.00;96012.72;5045253;28;20597;-76
2021/11/28 05:53:00;;;;;;;6.10;5.50;;;;;;;-2.46;100.00;96016.81;5035436;28;20826;-78
2021/11/28 05:55:28;;;;;;;6.87;6.27;;;;;;;-2.40;100.00;96018.03;5015952;28;20831;-76
2021/11/28 05:57:57;;;;;;;6.90;6.30;;;;;;;-2.36;100.00;96022.00;5045917;28;20496;-77
2021/11/28 06:00:26;;;;;;;6.50;5.67;;;;;;;-2.33;100.00;96013.97;5046259;28;20698;-77
2021/11/28 06:02:55;;;;;;;6.73;6.17;;;;;;;-2.32;100.00;96010.41;5055125;28;20203;-78
2021/11/28 06:05:25;;;;;;;9.13;8.33;;;;;;;-2.33;100.00;96021.75;5056792;28;20752;-77
2021/11/28 06:07:54;;;;;;;7.80;7.13;;;;;;;-2.33;100.00;96027.78;5047897;28;20227;-78
2021/11/28 06:10:22;;;;;;;6.27;5.67;;;;;;;-2.35;100.00;96027.09;5038173;28;20472;-76
2021/11/28 06:12:50;;;;;;;8.73;5.90;;;;;;;-2.21;100.00;96030.25;5045484;28;20216;-77
2021/11/28 06:15:18;;;;;;;6.07;5.47;;;;;;;-2.18;100.00;96029.97;5041201;28;20950;-77
2021/11/28 06:17:46;;;;;;;6.83;6.33;;;;;;;-2.18;100.00;96024.78;5050162;28;20223;-78
2021/11/28 06:20:14;;;;;;;6.90;6.30;;;;;;;-2.22;100.00;96026.00;5038013;28;20203;-76
2021/11/28 06:22:43;;;;;;;6.17;5.43;;;;;;;-2.24;100.00;96025.31;5055028;28;20202;-76
2021/11/28 06:25:11;;;;;;;6.73;6.13;;;;;;;-2.22;100.00;96026.84;5036189;28;20207;-76
2021/11/28 06:27:58;;;;;;;6.50;5.90;;;;;;;-2.13;100.00;96030.41;5039141;28;20257;-74
2021/11/28 06:30:25;;;;;;;8.23;6.23;;;;;;;-2.07;100.00;96034.25;5043773;28;20251;-78
2021/11/28 06:32:54;;;;;;;7.90;6.77;;;;;;;-2.17;100.00;96031.63;5038421;28;20203;-76
2021/11/28 06:35:22;;;;;;;6.30;5.80;;;;;;;-2.24;100.00;96035.72;5038737;28;20211;-74
2021/11/28 06:37:51;;;;;;;6.67;6.07;;;;;;;-2.23;100.00;96047.72;5042984;28;20285;-76
2021/11/28 06:40:20;;;;;;;7.17;6.47;;;;;;;-2.27;100.00;96046.34;5022813;28;20466;-75
2021/11/28 06:42:48;;;;;;;6.47;5.90;;;;;;;-2.25;100.00;96045.28;5054411;28;20207;-77
2021/11/28 06:45:16;;;;;;;6.80;6.20;;;;;;;-2.26;100.00;96046.25;5042908;28;20204;-77
2021/11/28 06:47:46;;;;;;;7.47;6.77;;;;;;;-2.25;100.00;96052.22;5040136;28;21017;-76
2021/11/28 06:50:15;;;;;;;6.83;6.23;;;;;;;-2.22;100.00;96044.19;5038285;28;20460;-76
2021/11/28 06:52:43;;;;;;;7.13;6.43;;;;;;;-2.21;100.00;96049.25;5053198;28;20457;-75
2021/11/28 06:55:13;;;;;;;7.47;6.77;;;;;;;-2.26;100.00;96048.84;5013512;28;20454;-69
2021/11/28 06:57:42;;;;;;;7.03;6.10;;;;;;;-2.20;100.00;96050.06;5042305;28;20468;-71
2021/11/28 07:00:11;;;;;;;8.13;7.47;;;;;;;-2.20;100.00;96047.47;5048850;28;20609;-68
2021/11/28 07:02:39;;;;;;;8.03;7.33;;;;;;;-2.15;100.00;96054.88;5034599;28;20250;-71
2021/11/28 07:05:08;;;;;;;8.53;6.97;;;;;;;-2.06;100.00;96054.91;5047724;28;20458;-70
2021/11/28 07:07:42;;;;;;;6.87;6.27;;;;;;;-2.08;100.00;96053.38;5040136;28;20241;-70
2021/11/28 07:10:10;;;;;;;7.33;6.60;;;;;;;-2.09;100.00;96049.94;5047661;28;20204;-70
2021/11/28 07:12:40;;;;;;;7.93;6.87;;;;;;;-2.05;100.00;96056.53;5009623;28;20902;-71
2021/11/28 07:15:08;;;;;;;7.17;6.00;;;;;;;-1.99;100.00;96055.16;5043571;28;20210;-71
2021/11/28 07:17:36;;;;;;;6.97;6.37;;;;;;;-2.03;100.00;96058.97;5026174;28;20600;-72
2021/11/28 07:20:06;;;;;;;8.63;7.40;;;;;;;-1.99;100.00;96059.56;5042874;28;20706;-69
2021/11/28 07:22:34;;;;;;;6.80;6.20;;;;;;;-1.98;100.00;96061.19;5031413;28;21044;-71
2021/11/28 07:25:02;;;;;;;7.40;6.80;;;;;;;-1.99;100.00;96047.38;5047623;28;20203;-70
2021/11/28 07:27:30;;;;;;;7.63;6.83;;;;;;;-2.02;100.00;96059.81;5017939;28;20449;-70
2021/11/28 07:30:01;;;;;;;9.30;7.47;;;;;;;-1.96;100.00;96065.28;5045109;28;20227;-70
2021/11/28 07:32:29;;;;;;;8.90;8.07;;;;;;;-1.92;100.00;96066.66;5035267;28;20424;-70
2021/11/28 07:34:57;;;;;;;8.20;7.40;;;;;;;-1.81;100.00;96067.50;5035764;28;20211;-71
2021/11/28 07:37:25;;;;;;;8.87;7.93;;;;;;;-1.68;100.00;96068.06;5027013;28;20454;-70
2021/11/28 07:39:54;;;;;;;11.30;8.93;;;;;;;-1.76;100.00;96076.53;5049400;28;20461;-71
2021/11/28 07:42:22;;;;;;;25.43;19.97;;;;;;;-1.67;100.00;96068.91;5010734;28;20490;-69
2021/11/28 07:44:50;;;;;;;18.80;16.27;;;;;;;-1.77;100.00;96071.47;5037602;28;20204;-69
2021/11/28 07:47:20;;;;;;;14.57;13.00;;;;;;;-1.78;100.00;96068.06;5030633;28;22874;-71
2021/11/28 07:49:48;;;;;;;12.17;10.90;;;;;;;-1.77;100.00;96076.69;5036928;28;20601;-69
2021/11/28 07:52:16;;;;;;;11.97;10.27;;;;;;;-1.76;100.00;96070.53;5044005;28;20372;-71
2021/11/28 07:54:45;;;;;;;10.40;9.30;;;;;;;-1.75;100.00;96074.75;5035682;28;20574;-70
2021/11/28 07:57:13;;;;;;;8.13;7.43;;;;;;;-1.65;100.00;96073.00;5049483;28;20477;-72
2021/11/28 07:59:41;;;;;;;7.87;7.13;;;;;;;-1.63;100.00;96071.09;5017621;28;20214;-72
2021/11/28 08:02:09;;;;;;;8.57;7.77;;;;;;;-1.64;100.00;96064.25;5047414;28;20546;-71
2021/11/28 08:04:39;;;;;;;11.00;8.73;;;;;;;-1.64;100.00;96063.44;5032994;28;20222;-73
2021/11/28 08:07:07;;;;;;;12.17;8.93;;;;;;;-1.66;100.00;96058.38;5036812;28;20633;-73
2021/11/28 08:09:35;;;;;;;9.23;8.43;;;;;;;-1.65;100.00;96056.59;5038865;28;20222;-71
2021/11/28 08:12:04;;;;;;;9.07;8.27;;;;;;;-1.60;100.00;96059.59;5051049;28;20218;-73
2021/11/28 08:14:34;;;;;;;6.90;6.30;;;;;;;-1.61;100.00;96061.38;5021816;28;20633;-71
2021/11/28 08:17:04;;;;;;;7.30;6.67;;;;;;;-1.62;100.00;96051.94;5051804;28;21062;-72
2021/11/28 08:19:32;;;;;;;8.80;7.90;;;;;;;-1.25;100.00;96055.66;5027772;28;20343;-70
2021/11/28 08:22:02;;;;;;;11.73;10.63;;;;;;;-1.35;100.00;96060.00;5044898;28;20497;-74
2021/11/28 08:24:30;;;;;;;11.33;8.27;;;;;;;-1.35;100.00;96057.41;5043701;28;20214;-74
2021/11/28 08:26:58;;;;;;;9.87;8.87;;;;;;;-1.37;100.00;96059.31;5034469;28;20239;-74
2021/11/28 08:29:27;;;;;;;8.57;7.77;;;;;;;-1.34;100.00;96057.28;5019586;28;20338;-76
2021/11/28 08:31:55;;;;;;;7.37;6.70;;;;;;;-0.97;100.00;96057.53;5053490;28;20204;-73
2021/11/28 08:34:24;;;;;;;8.00;7.20;;;;;;;-1.06;100.00;96053.97;5028658;28;20815;-73
2021/11/28 08:36:52;;;;;;;8.63;7.30;;;;;;;-1.21;100.00;96049.22;5038031;28;20234;-73
2021/11/28 08:39:26;;;;;;;12.53;11.10;;;;;;;-1.21;100.00;96057.00;5041869;28;20210;-73
2021/11/28 08:41:54;;;;;;;11.60;10.10;;;;;;;-1.06;100.00;96043.56;5050215;28;20210;-72
2021/11/28 08:44:22;;;;;;;12.43;11.10;;;;;;;-1.13;100.00;96048.53;5049192;28;20422;-74
2021/11/28 08:46:50;;;;;;;9.77;8.83;;;;;;;-1.15;100.00;96055.63;5014109;28;20242;-74
2021/11/28 08:49:19;;;;;;;12.27;10.30;;;;;;;-1.25;100.00;96063.44;5027839;28;20378;-74
2021/11/28 08:51:48;;;;;;;10.20;9.10;;;;;;;-1.12;100.00;96060.56;5040773;28;20218;-74
2021/11/28 08:54:16;;;;;;;9.70;8.77;;;;;;;-1.12;100.00;96077.94;5038312;28;20461;-74
2021/11/28 08:56:50;;;;;;;11.00;9.10;;;;;;;-1.09;100.00;96062.06;5052723;28;20232;-74
2021/11/28 08:59:18;;;;;;;9.73;8.73;;;;;;;-1.14;100.00;96064.25;5048052;28;20201;-75
2021/11/28 09:01:46;;;;;;;10.67;9.67;;;;;;;-1.07;100.00;96065.34;5022432;28;20211;-74
2021/11/28 09:04:15;;;;;;;11.70;10.50;;;;;;;-1.10;100.00;96068.22;5035531;28;20556;-75
2021/11/28 09:06:43;;;;;;;11.43;10.23;;;;;;;-1.11;100.00;96063.97;5039271;28;21123;-74
2021/11/28 09:09:11;;;;;;;11.23;10.13;;;;;;;-1.04;100.00;96073.69;5035724;28;20235;-75
2021/11/28 09:11:39;;;;;;;9.80;8.80;;;;;;;-1.00;100.00;96073.41;5055305;28;20741;-75
2021/11/28 09:14:09;;;;;;;10.67;9.63;;;;;;;-1.02;100.00;96089.13;5050335;28;20403;-74
2021/11/28 09:16:37;;;;;;;9.67;8.67;;;;;;;-0.91;100.00;96082.97;5051373;28;20210;-75
2021/11/28 09:19:08;;;;;;;10.53;9.53;;;;;;;-0.82;100.00;96083.94;5009058;28;20211;-73
2021/11/28 09:21:36;;;;;;;9.63;8.80;;;;;;;-0.73;100.00;96089.13;5048569;28;20726;-74
2021/11/28 09:26:50;;;;;;;10.33;9.33;;;;;;;-0.67;100.00;96085.13;5037747;28;20746;-74
2021/11/28 09:29:20;;;;;;;10.00;9.00;;;;;;;-0.69;100.00;96078.44;5048397;28;20746;-74
2021/11/28 09:31:48;;;;;;;11.37;10.17;;;;;;;-0.67;100.00;96085.13;5040245;28;20222;-75
2021/11/28 09:34:17;;;;;;;10.93;9.90;;;;;;;-0.64;100.00;96079.63;5010161;28;20380;-74
2021/11/28 09:36:45;;;;;;;12.50;11.17;;;;;;;-0.52;100.00;96080.28;5039476;28;20640;-75
2021/11/28 09:39:13;;;;;;;10.60;9.60;;;;;;;-0.44;100.00;96076.97;5027202;28;20804;-74
2021/11/28 09:42:02;;;;;;;10.63;9.53;;;;;;;-0.47;100.00;96074.66;5050958;28;20200;-74
2021/11/28 09:44:33;;;;;;;13.90;11.57;;;;;;;-0.41;100.00;96068.88;5024034;28;20206;-74
2021/11/28 09:47:02;;;;;;;9.97;9.00;;;;;;;-0.47;100.00;96062.47;5036273;28;20231;-74
2021/11/28 09:49:31;;;;;;;10.37;9.50;;;;;;;-0.48;100.00;96068.63;5013800;28;20219;-73
2021/11/28 09:52:03;;;;;;;12.00;10.83;;;;;;;-0.52;100.00;96053.44;5047729;28;20203;-76
2021/11/28 09:54:33;;;;;;;10.27;9.37;;;;;;;-0.41;100.00;96050.66;5038549;28;20753;-70
2021/11/28 09:57:01;;;;;;;12.33;9.23;;;;;;;-0.35;100.00;96052.69;5046243;28;20283;-71
2021/11/28 09:59:30;;;;;;;12.20;11.00;;;;;;;-0.33;100.00;96058.56;5045373;28;20294;-72
2021/11/28 10:02:00;;;;;;;10.20;9.20;;;;;;;-0.36;100.00;96058.84;5042937;28;20216;-75
2021/11/28 10:04:28;;;;;;;10.60;9.57;;;;;;;-0.33;100.00;96062.97;5022683;28;20298;-73
2021/11/28 10:06:57;;;;;;;11.37;10.23;;;;;;;-0.17;100.00;96059.75;5037420;28;20246;-73
2021/11/28 10:09:25;;;;;;;10.60;9.60;;;;;;;-0.19;100.00;96062.50;5040441;28;20293;-74
2021/11/28 10:12:17;;;;;;;12.20;9.23;;;;;;;-0.15;100.00;96061.22;5033950;28;20215;-67
2021/11/28 10:14:48;;;;;;;11.37;10.37;;;;;;;0.04;100.00;96053.47;5049773;28;20204;-69
2021/11/28 10:17:19;;;;;;;10.30;9.40;;;;;;;0.01;100.00;96056.38;5037025;28;20350;-70
2021/11/28 10:19:47;;;;;;;8.73;7.93;;;;;;;-0.09;100.00;96059.00;5015324;28;20223;-67
2021/11/28 10:22:15;;;;;;;10.30;9.33;;;;;;;-0.18;100.00;96056.31;5033104;28;20199;-74
2021/11/28 10:24:56;;;;;;;10.93;8.93;;;;;;;-0.11;100.00;96047.91;5043877;28;20444;-74
2021/11/28 10:27:33;;;;;;;10.67;9.57;;;;;;;-0.17;100.00;96050.16;5043971;28;20253;-77
2021/11/28 10:30:01;;;;;;;10.70;9.57;;;;;;;-0.11;100.00;96043.53;5052540;28;20230;-78
2021/11/28 10:32:31;;;;;;;10.00;9.10;;;;;;;-0.15;100.00;96042.19;5050449;28;20206;-78
2021/11/28 10:34:59;;;;;;;10.67;9.67;;;;;;;0.12;100.00;96043.97;5014425;28;20579;-75
2021/11/28 10:37:27;;;;;;;10.83;9.80;;;;;;;0.38;100.00;96039.81;5037500;28;20235;-76
2021/11/28 10:39:59;;;;;;;11.33;10.33;;;;;;;0.38;100.00;96034.59;5050173;28;20650;-74
2021/11/28 10:42:31;;;;;;;11.17;10.00;;;;;;;0.24;100.00;96033.31;5030861;28;20348;-75
2021/11/28 10:45:06;;;;;;;10.87;9.97;;;;;;;0.15;100.00;96029.81;5051030;28;20203;-72
2021/11/28 10:47:38;;;;;;;10.87;9.87;;;;;;;0.34;100.00;96025.44;5054274;28;20807;-74
2021/11/28 10:50:10;;;;;;;11.00;10.10;;;;;;;0.37;100.00;96022.53;5019485;28;20227;-73
2021/11/28 10:52:38;;;;;;;10.43;9.40;;;;;;;0.19;100.00;96035.56;5037681;28;20556;-74
2021/11/28 10:55:14;;;;;;;11.30;10.30;;;;;;;0.23;100.00;96035.13;5041016;28;20203;-73
2021/11/28 10:57:43;;;;;;;11.13;9.83;;;;;;;0.23;100.00;96037.72;5041701;28;20237;-74
2021/11/28 11:00:12;;;;;;;10.63;9.47;;;;;;;0.28;100.00;96027.69;5047314;28;20210;-74
2021/11/28 11:02:42;;;;;;;11.33;10.23;;;;;;;0.22;100.00;96033.50;5052306;28;20203;-74
2021/11/28 11:05:12;;;;;;;11.63;10.47;;;;;;;0.22;100.00;96035.25;5016435;28;21224;-73
2021/11/28 11:07:52;;;;;;;12.33;11.03;;;;;;;0.22;100.00;96037.88;5041551;28;20601;-75
2021/11/28 11:10:23;;;;;;;11.83;10.80;;;;;;;0.21;100.00;96037.06;5033380;28;20231;-75
2021/11/28 11:12:57;;;;;;;11.40;10.30;;;;;;;0.22;100.00;96030.06;5011474;28;20607;-77
2021/11/28 11:15:33;;;;;;;10.10;9.10;;;;;;;0.22;100.00;96038.69;5034653;28;20215;-79
2021/11/28 11:18:05;;;;;;;11.93;10.73;;;;;;;0.13;100.00;96031.75;5033794;28;20256;-78
2021/11/28 11:20:35;;;;;;;11.07;9.90;;;;;;;0.22;100.00;96028.28;5044688;28;20243;-80
2021/11/28 11:23:05;;;;;;;10.50;9.60;;;;;;;0.30;100.00;96032.72;5011284;28;20317;-77
2021/11/28 11:25:37;;;;;;;10.47;9.60;;;;;;;0.37;100.00;96027.75;5043114;28;20305;-80
2021/11/28 11:28:11;;;;;;;10.33;9.37;;;;;;;0.47;100.00;96027.69;5036738;28;20230;-79
2021/11/28 11:30:40;;;;;;;10.00;9.00;;;;;;;0.45;100.00;96033.03;5047063;28;20234;-79
2021/11/28 11:33:11;;;;;;;9.77;8.87;;;;;;;0.46;100.00;96032.06;5053699;28;20199;-77